Time;durP1;ratioP1;P1;durP2;ratioP2;P2;SDS_P1;SDS_P2;PMS_P1;PMS_P2;Temp;Humidity;BMP_temperature;BMP_pressure;BME280_temperature;BME280_humidity;BME280_pressure;Samples;Min_cycle;Max_cycle;Signal;HPM_P1;HPM_P2
2022/04/01 00:00:46;;;;;;;0.40;0.40;;;;;;;;;;5093128;28;20048;-63
2022/04/01 00:03:12;;;;;;;0.30;0.30;;;0.50;99.90;;;;;;5093278;28;20759;-63
2022/04/01 00:05:40;;;;;;;0.60;0.60;;;0.70;99.90;;;;;;5093214;28;20048;-63
2022/04/01 00:08:08;;;;;;;0.30;0.30;;;;;;;;;;5093351;28;20044;-64
2022/04/01 00:10:34;;;;;;;1.17;1.10;;;;;;;;;;5093120;28;20055;-63
2022/04/01 00:13:01;;;;;;;0.25;0.25;;;;;;;;;;5093056;28;20048;-63
2022/04/01 00:15:27;;;;;;;0.22;0.22;;;;;;;;;;5093027;28;20093;-63
2022/04/01 00:17:54;;;;;;;0.30;0.30;;;;;;;;;;5093223;28;20381;-63
2022/04/01 00:20:20;;;;;;;0.82;0.82;;;;;;;;;;5091824;28;20169;-63
2022/04/01 00:22:47;;;;;;;0.40;0.40;;;;;;;;;;5092859;28;20508;-63
2022/04/01 00:25:14;;;;;;;0.30;0.30;;;1.00;99.90;;;;;;5092332;28;20110;-64
2022/04/01 00:27:40;;;;;;;0.30;0.30;;;;;;;;;;5092560;28;20052;-63
2022/04/01 00:30:07;;;;;;;0.30;0.30;;;;;;;;;;5092820;28;20044;-65
2022/04/01 00:32:32;;;;;;;;;;;1.40;99.90;;;;;;5091986;28;20446;-63
2022/04/01 00:34:58;;;;;;;0.30;0.30;;;;;;;;;;5091288;28;20054;-64
2022/04/01 00:37:24;;;;;;;0.40;0.40;;;1.00;99.90;;;;;;5092898;28;20170;-65
2022/04/01 00:39:50;;;;;;;0.40;0.40;;;;;;;;;;5092395;28;20127;-63
2022/04/01 00:42:17;;;;;;;0.30;0.30;;;;;;;;;;5092638;28;20507;-64
2022/04/01 00:44:43;;;;;;;0.30;0.30;;;;;;;;;;5092601;28;20077;-64
2022/04/01 00:47:14;;;;;;;0.40;0.40;;;;;;;;;;5092831;28;20101;-65
2022/04/01 00:49:40;;;;;;;0.40;0.40;;;;;;;;;;5092798;28;20408;-63
2022/04/01 00:52:08;;;;;;;0.30;0.30;;;;;;;;;;5091410;28;20062;-63
2022/04/01 00:54:35;;;;;;;0.40;0.40;;;;;;;;;;5092624;28;20054;-63
2022/04/01 00:57:06;;;;;;;0.30;0.30;;;1.00;99.90;;;;;;5092655;28;20048;-63
2022/04/01 00:59:32;;;;;;;0.68;0.68;;;;;;;;;;5092725;28;20131;-65
2022/04/01 01:01:59;;;;;;;0.85;0.85;;;;;;;;;;5092613;28;20411;-63
2022/04/01 01:04:25;;;;;;;0.30;0.30;;;;;;;;;;5092607;28;20105;-64
2022/04/01 01:06:54;;;;;;;0.30;0.30;;;1.00;99.90;;;;;;5092587;28;20404;-64
2022/04/01 01:09:20;;;;;;;0.40;0.40;;;;;;;;;;5092485;28;20052;-63
2022/04/01 01:11:49;;;;;;;0.40;0.40;;;;;;;;;;5092451;28;20044;-64
2022/04/01 01:14:16;;;;;;;0.95;0.95;;;;;;;;;;5092466;28;20048;-63
2022/04/01 01:16:46;;;;;;;0.30;0.30;;;1.40;99.90;;;;;;5092503;28;20052;-63
2022/04/01 01:19:15;;;;;;;1.60;1.58;;;;;;;;;;5092491;28;20104;-63
2022/04/01 01:21:42;;;;;;;0.43;0.43;;;1.00;99.90;;;;;;5092484;28;20056;-63
2022/04/01 01:24:14;;;;;;;0.40;0.40;;;1.40;99.90;;;;;;5092513;28;20055;-62
2022/04/01 01:26:41;;;;;;;0.30;0.30;;;;;;;;;;5091188;28;20534;-63
2022/04/01 01:29:06;;;;;;;;;;;1.00;99.90;;;;;;5092817;28;20157;-63
2022/04/01 01:31:33;;;;;;;0.43;0.43;;;1.20;99.90;;;;;;5092309;28;19959;-62
2022/04/01 01:33:59;;;;;;;0.40;0.40;;;;;;;;;;5092318;28;20115;-63
2022/04/01 01:36:27;;;;;;;0.30;0.30;;;;;;;;;;5092359;28;20380;-64
2022/04/01 01:38:54;;;;;;;0.30;0.30;;;1.10;99.90;;;;;;5095181;28;20548;-63
2022/04/01 01:41:20;;;;;;;0.40;0.40;;;1.00;99.90;;;;;;5096313;28;20125;-65
2022/04/01 01:43:46;;;;;;;30.67;1.02;;;1.50;99.90;;;;;;5096252;28;20093;-63
2022/04/01 01:46:12;;;;;;;;;;;1.30;99.90;;;;;;5096577;28;20043;-63
2022/04/01 01:48:39;;;;;;;0.38;0.38;;;;;;;;;;5095728;28;19942;-63
2022/04/01 01:56:35;;;;;;;0.40;0.40;;;;;;;;;;5096088;28;20102;-64
2022/04/01 01:59:01;;;;;;;0.40;0.40;;;1.30;99.90;;;;;;5095909;28;20549;-63
2022/04/01 02:01:27;;;;;;;0.30;0.30;;;;;;;;;;5095609;28;20484;-63
2022/04/01 02:03:53;;;;;;;0.30;0.30;;;;;;;;;;5095833;28;20047;-63
2022/04/01 02:06:23;;;;;;;0.85;0.85;;;;;;;;;;5095778;28;20048;-65
2022/04/01 02:08:50;;;;;;;0.38;0.38;;;;;;;;;;5095818;28;20083;-63
2022/04/01 02:11:17;;;;;;;7.47;2.42;;;1.30;99.90;;;;;;5095691;28;20051;-63
2022/04/01 02:13:45;;;;;;;5.72;2.10;;;;;;;;;;5095527;28;20422;-64
2022/04/01 02:16:11;;;;;;;9.82;2.35;;;;;;;;;;5095628;28;20403;-65
2022/04/01 02:18:37;;;;;;;8.02;2.20;;;;;;;;;;5095229;28;20488;-63
2022/04/01 02:21:10;;;;;;;7.80;2.05;;;;;;;;;;5094402;28;20508;-63
2022/04/01 02:23:39;;;;;;;5.85;2.30;;;;;;;;;;5095518;28;20055;-63
2022/04/01 02:26:07;;;;;;;7.25;2.42;;;;;;;;;;5095434;28;20071;-65
2022/04/01 02:28:33;;;;;;;7.38;2.60;;;;;;;;;;5094114;28;20079;-63
2022/04/01 02:31:00;;;;;;;12.93;2.10;;;;;;;;;;5094090;28;20048;-62
2022/04/01 02:33:27;;;;;;;;;;;1.50;99.90;;;;;;5094416;28;20043;-64
2022/04/01 02:35:54;;;;;;;6.88;2.25;;;1.40;99.90;;;;;;5095097;28;19919;-63
2022/04/01 02:38:20;;;;;;;5.25;1.90;;;;;;;;;;5095142;28;20135;-63
2022/04/01 02:40:46;;;;;;;7.50;2.45;;;1.40;99.90;;;;;;5095158;28;20049;-63
2022/04/01 02:43:12;;;;;;;7.13;2.35;;;;;;;;;;5095171;28;20365;-64
2022/04/01 02:45:38;;;;;;;15.27;2.17;;;;;;;;;;5077276;28;20121;-63
2022/04/01 02:48:05;;;;;;;5.78;2.33;;;1.50;99.90;;;;;;5094521;28;20081;-64
2022/04/01 02:50:31;;;;;;;6.82;2.22;;;;;;;;;;5094376;28;20054;-65
2022/04/01 02:52:57;;;;;;;3.95;2.17;;;;;;;;;;5094869;28;20083;-63
2022/04/01 02:55:23;;;;;;;4.28;2.08;;;;;;;;;;5094851;28;20056;-63
2022/04/01 02:57:48;;;;;;;6.28;2.40;;;1.60;99.90;;;;;;5094819;28;20109;-62
2022/04/01 03:00:21;;;;;;;11.23;3.13;;;1.60;99.90;;;;;;5095138;28;20036;-63
2022/04/01 03:02:47;;;;;;;7.03;2.33;;;;;;;;;;5094773;28;20270;-65
2022/04/01 03:05:13;;;;;;;5.72;2.67;;;;;;;;;;5094729;28;20063;-65
2022/04/01 03:07:39;;;;;;;10.05;2.47;;;1.90;99.90;;;;;;5094717;28;20047;-62
2022/04/01 03:10:06;;;;;;;4.93;2.22;;;;;;;;;;5093585;28;20047;-63
2022/04/01 03:12:32;;;;;;;8.30;2.13;;;;;;;;;;5093385;28;20403;-64
2022/04/01 03:14:57;;;;;;;6.45;2.33;;;1.90;99.90;;;;;;5094489;28;20078;-63
2022/04/01 03:17:23;;;;;;;8.23;2.10;;;;;;;;;;5093193;28;20036;-63
2022/04/01 03:19:49;;;;;;;7.43;2.20;;;2.20;99.90;;;;;;5094399;28;20055;-65
2022/04/01 03:22:15;;;;;;;8.33;2.10;;;;;;;;;;5094269;28;20036;-64
2022/04/01 03:24:42;;;;;;;8.32;2.17;;;;;;;;;;5094346;28;20059;-65
2022/04/01 03:27:08;;;;;;;7.28;2.60;;;2.40;99.90;;;;;;5094227;28;20182;-64
2022/04/01 03:29:34;;;;;;;10.13;2.60;;;;;;;;;;5094254;28;20126;-63
2022/04/01 03:32:00;;;;;;;;;;;;;;;;;;5094527;28;20415;-63
2022/04/01 03:34:26;;;;;;;6.10;2.40;;;2.20;99.90;;;;;;5094153;28;19920;-64
2022/04/01 03:36:54;;;;;;;7.22;2.50;;;2.20;99.90;;;;;;5094167;28;20407;-67
2022/04/01 03:39:21;;;;;;;5.72;2.00;;;2.30;99.90;;;;;;5092890;28;20154;-63
2022/04/01 03:41:49;;;;;;;5.95;2.15;;;2.20;99.90;;;;;;5093975;28;20048;-65
2022/04/01 03:44:15;;;;;;;6.25;2.03;;;;;;;;;;5093898;28;20052;-63
2022/04/01 03:46:50;;;;;;;7.65;2.10;;;;;;;;;;5093920;28;20556;-64
2022/04/01 03:49:22;;;;;;;8.38;2.05;;;2.10;99.90;;;;;;5093760;28;20093;-63
2022/04/01 03:51:49;;;;;;;4.57;2.15;;;2.50;99.90;;;;;;5093846;28;20055;-63
2022/04/01 03:54:15;;;;;;;8.73;2.55;;;;;;;;;;5093645;28;20044;-63
2022/04/01 03:56:44;;;;;;;6.78;2.22;;;;;;;;;;5093704;28;20139;-63
2022/04/01 03:59:12;;;;;;;5.13;2.40;;;;;;;;;;5093655;28;20162;-64
2022/04/01 04:01:38;;;;;;;6.22;2.60;;;;;;;;;;5093418;28;20043;-63
2022/04/01 04:04:07;;;;;;;3.53;2.08;;;2.30;99.90;;;;;;5093576;28;20040;-62
2022/04/01 04:06:38;;;;;;;6.43;2.70;;;;;;;;;;5093473;28;20177;-62
2022/04/01 04:09:04;;;;;;;6.72;2.10;;;;;;;;;;5093487;28;20048;-63
2022/04/01 04:11:31;;;;;;;5.75;2.22;;;;;;;;;;5092186;28;20212;-63
2022/04/01 04:13:58;;;;;;;7.32;2.65;;;2.20;99.90;;;;;;5093306;28;20040;-64
2022/04/01 04:16:25;;;;;;;11.80;2.45;;;;;;;;;;5093350;28;20399;-62
2022/04/01 04:19:03;;;;;;;3.72;1.98;;;;;;;;;;5093263;28;20044;-63
2022/04/01 04:21:30;;;;;;;7.85;2.10;;;;;;;;;;5092185;28;20051;-64
2022/04/01 04:23:58;;;;;;;6.47;2.03;;;;;;;;;;5093202;28;20040;-64
2022/04/01 04:26:32;;;;;;;9.10;2.75;;;2.00;99.90;;;;;;5093116;28;20052;-62
2022/04/01 04:29:17;;;;;;;8.85;2.60;;;;;;;;;;5092972;28;20055;-63
2022/04/01 04:32:03;;;;;;;8.02;3.05;;;2.10;99.90;;;;;;5091947;28;20395;-63
2022/04/01 04:34:37;;;;;;;8.70;2.70;;;;;;;;;;5093167;28;20055;-62
2022/04/01 04:37:08;;;;;;;9.82;3.15;;;;;;;;;;5093027;28;20062;-62
2022/04/01 04:39:36;;;;;;;10.30;3.30;;;;;;;;;;5093043;28;20040;-63
2022/04/01 04:42:02;;;;;;;13.63;2.92;;;2.30;99.90;;;;;;5092913;28;20131;-63
2022/04/01 04:44:30;;;;;;;7.68;2.85;;;;;;;;;;5092884;28;20123;-63
2022/04/01 04:46:59;;;;;;;21.23;2.95;;;;;;;;;;5092787;28;20506;-62
2022/04/01 04:49:27;;;;;;;6.50;2.80;;;;;;;;;;5092748;28;20131;-64
2022/04/01 04:51:53;;;;;;;10.98;4.68;;;;;;;;;;5092482;28;20569;-62
2022/04/01 04:54:20;;;;;;;10.68;2.83;;;;;;;;;;5092701;28;20098;-63
2022/04/01 04:56:47;;;;;;;9.50;2.78;;;;;;;;;;5091625;28;20480;-64
2022/04/01 04:59:13;;;;;;;;;;;2.40;99.90;;;;;;5093081;28;20047;-65
2022/04/01 05:01:44;;;;;;;8.60;2.60;;;;;;;;;;5092671;28;20265;-65
2022/04/01 05:04:13;;;;;;;8.45;2.40;;;;;;;;;;5092566;28;20054;-64
2022/04/01 05:07:08;;;;;;;9.43;2.38;;;2.40;99.90;;;;;;5092588;28;20055;-62
2022/04/01 05:09:40;;;;;;;7.28;2.47;;;2.10;99.90;;;;;;5081740;28;20052;-65
2022/04/01 05:12:16;;;;;;;9.13;2.10;;;2.50;99.90;;;;;;5093467;28;20043;-62
2022/04/01 05:15:04;;;;;;;8.45;2.45;;;;;;;;;;5096821;28;20060;-63
2022/04/01 05:17:43;;;;;;;9.65;2.70;;;2.20;99.90;;;;;;5096797;28;20052;-64
2022/04/01 05:20:17;;;;;;;7.43;2.40;;;2.30;99.90;;;;;;5096366;28;20496;-63
2022/04/01 05:22:47;;;;;;;11.18;2.30;;;2.40;99.90;;;;;;5095691;28;20051;-64
2022/04/01 05:25:17;;;;;;;5.63;2.28;;;2.20;99.90;;;;;;5096735;28;20407;-64
2022/04/01 05:27:50;;;;;;;7.82;2.13;;;2.10;99.90;;;;;;5096468;28;20054;-67
2022/04/01 05:30:17;;;;;;;4.57;1.88;;;2.30;99.90;;;;;;5096543;28;20403;-63
2022/04/01 05:33:08;;;;;;;7.00;1.90;;;2.50;99.90;;;;;;5096435;28;20509;-64
2022/04/01 05:35:39;;;;;;;7.13;1.95;;;2.10;99.90;;;;;;5096078;28;20056;-64
2022/04/01 05:38:09;;;;;;;7.60;2.20;;;;;;;;;;5096377;28;20144;-64
2022/04/01 05:40:36;;;;;;;8.90;2.45;;;2.10;99.90;;;;;;5096309;28;20137;-63
2022/04/01 05:43:04;;;;;;;5.78;2.13;;;;;;;;;;5096315;28;20396;-63
2022/04/01 05:45:31;;;;;;;8.65;2.13;;;2.30;99.90;;;;;;5096149;28;20052;-64
2022/04/01 05:47:57;;;;;;;9.45;2.22;;;2.30;99.90;;;;;;5096149;28;20044;-62
2022/04/01 05:50:25;;;;;;;5.45;1.92;;;;;;;;;;5096093;28;20173;-64
2022/04/01 05:52:52;;;;;;;6.85;1.80;;;;;;;;;;5096016;28;20180;-63
2022/04/01 05:55:22;;;;;;;6.45;2.10;;;2.30;99.90;;;;;;5095975;28;20147;-63
2022/04/01 05:57:48;;;;;;;9.27;2.35;;;;;;;;;;5096014;28;20464;-62
2022/04/01 06:00:14;;;;;;;4.63;2.05;;;2.20;99.90;;;;;;5094818;28;20584;-63
2022/04/01 06:02:46;;;;;;;6.30;2.10;;;;;;;;;;5095898;28;20132;-62
2022/04/01 06:05:22;;;;;;;6.80;1.90;;;;;;;;;;5095786;28;20059;-63
2022/04/01 06:08:18;;;;;;;7.13;1.90;;;2.70;99.90;;;;;;5095716;28;20066;-63
2022/04/01 06:11:04;;;;;;;7.68;2.10;;;2.40;99.90;;;;;;5095743;28;20126;-64
2022/04/01 06:14:07;;;;;;;8.90;2.03;;;2.40;99.90;;;;;;5095474;28;20048;-63
2022/04/01 06:16:42;;;;;;;6.97;2.08;;;;;;;;;;5095516;28;20062;-63
2022/04/01 06:19:30;;;;;;;7.90;2.00;;;2.40;99.90;;;;;;5095578;28;20369;-63
2022/04/01 06:21:59;;;;;;;7.15;1.65;;;;;;;;;;5086681;28;20589;-64
2022/04/01 06:24:41;;;;;;;3.30;1.85;;;;;;;;;;5092536;28;20458;-63
2022/04/01 06:27:10;;;;;;;10.18;2.00;;;2.50;99.90;;;;;;5091653;28;20119;-63
2022/04/01 06:29:40;;;;;;;9.05;2.35;;;;;;;;;;5094364;28;20483;-62
2022/04/01 06:32:11;;;;;;;6.65;1.90;;;2.60;99.90;;;;;;5093873;28;20047;-62
2022/04/01 06:35:02;;;;;;;7.93;1.70;;;;;;;;;;5094387;28;20051;-63
2022/04/01 06:37:32;;;;;;;5.93;2.38;;;2.80;99.90;;;;;;5091503;28;20056;-63
2022/04/01 06:40:12;;;;;;;5.72;1.83;;;;;;;;;;5093183;28;20059;-62
2022/04/01 06:42:39;;;;;;;5.28;1.90;;;2.50;99.90;;;;;;5094105;28;20101;-62
2022/04/01 06:45:08;;;;;;;16.05;2.22;;;2.80;99.90;;;;;;5085417;28;20123;-62
2022/04/01 06:47:34;;;;;;;11.90;2.22;;;;;;;;;;5093216;28;20064;-63
2022/04/01 06:50:01;;;;;;;8.50;2.65;;;;;;;;;;5093448;28;20052;-63
2022/04/01 06:52:27;;;;;;;9.63;2.40;;;2.40;99.90;;;;;;5092679;28;20048;-62
2022/04/01 06:54:54;;;;;;;9.93;2.63;;;2.70;99.90;;;;;;5093800;28;20052;-62
2022/04/01 06:57:20;;;;;;;6.75;2.20;;;;;;;;;;5091650;28;20131;-63
2022/04/01 06:59:46;;;;;;;4.22;1.92;;;;;;;;;;5093757;28;20043;-64
2022/04/01 07:02:12;;;;;;;8.30;2.08;;;;;;;;;;5092612;28;20047;-66
2022/04/01 07:04:38;;;;;;;8.30;2.38;;;2.70;99.90;;;;;;5093670;28;20400;-64
2022/04/01 07:07:04;;;;;;;6.25;2.45;;;;;;;;;;5093055;28;20044;-65
2022/04/01 07:09:30;;;;;;;2.78;2.00;;;2.60;99.90;;;;;;5092204;28;20078;-64
2022/04/01 07:12:01;;;;;;;3.33;1.67;;;;;;;;;;5093506;28;20047;-64
2022/04/01 07:14:27;;;;;;;5.57;1.85;;;2.70;99.90;;;;;;5093411;28;20046;-64
2022/04/01 07:16:56;;;;;;;6.95;2.17;;;;;;;;;;5092641;28;20080;-63
2022/04/01 07:19:22;;;;;;;6.03;2.00;;;2.80;99.90;;;;;;5092982;28;20484;-63
2022/04/01 07:21:48;;;;;;;12.25;2.85;;;;;;;;;;5093295;28;20074;-64
2022/04/01 07:24:14;;;;;;;10.23;2.38;;;;;;;;;;5093250;28;20051;-70
2022/04/01 07:26:40;;;;;;;;;;;2.70;99.90;;;;;;5091946;28;20048;-63
2022/04/01 07:29:07;;;;;;;5.13;1.75;;;2.90;99.90;;;;;;5093223;28;19986;-62
2022/04/01 07:34:24;;;;;;;8.50;2.00;;;;;;;;;;5090039;28;20054;-66
2022/04/01 07:36:51;;;;;;;4.78;1.80;;;;;;;;;;5091806;28;20059;-66
2022/04/01 07:39:16;;;;;;;3.75;1.60;;;3.10;99.90;;;;;;5098488;28;20170;-66
2022/04/01 07:41:42;;;;;;;5.53;2.17;;;2.90;99.90;;;;;;5113243;28;20059;-63
2022/04/01 07:44:08;;;;;;;4.38;2.65;;;2.60;99.90;;;;;;5099178;28;20036;-62
2022/04/01 07:46:34;;;;;;;8.00;1.77;;;3.20;99.90;;;;;;5091954;28;20491;-63
2022/04/01 07:48:59;;;;;;;4.70;2.03;;;3.10;99.90;;;;;;5093550;28;20059;-64
2022/04/01 07:51:25;;;;;;;7.05;1.80;;;3.20;99.90;;;;;;5092993;28;20044;-63
2022/04/01 07:53:51;;;;;;;5.32;1.90;;;3.10;99.90;;;;;;5093118;28;20040;-62
2022/04/01 07:56:17;;;;;;;6.95;1.88;;;3.20;99.90;;;;;;5093152;28;20047;-62
2022/04/01 07:58:42;;;;;;;5.87;2.07;;;3.50;99.90;;;;;;5093436;28;20388;-62
2022/04/01 08:01:08;;;;;;;4.38;1.80;;;3.40;99.90;;;;;;5093391;28;20278;-62
2022/04/01 08:03:34;;;;;;;7.63;2.10;;;3.10;99.90;;;;;;5092366;28;20486;-62
2022/04/01 08:05:59;;;;;;;7.43;2.00;;;3.60;99.90;;;;;;5093302;28;20048;-65
2022/04/01 08:08:25;;;;;;;7.38;2.65;;;3.40;99.90;;;;;;5093284;28;20052;-62
2022/04/01 08:10:51;;;;;;;4.87;2.00;;;3.30;99.90;;;;;;5093040;28;20056;-63
2022/04/01 08:13:17;;;;;;;2.55;1.58;;;3.70;99.90;;;;;;5093046;28;20634;-63
2022/04/01 08:15:45;;;;;;;5.05;1.90;;;;;;;;;;5093407;28;20056;-64
2022/04/01 08:18:11;;;;;;;6.00;1.90;;;3.40;99.90;;;;;;5093017;28;20522;-63
2022/04/01 08:20:37;;;;;;;3.53;1.98;;;;;;;;;;5093308;28;20385;-63
2022/04/01 08:23:03;;;;;;;4.60;2.08;;;3.30;99.90;;;;;;5085240;28;20081;-63
2022/04/01 08:25:29;;;;;;;5.28;2.00;;;3.50;99.90;;;;;;5090780;28;20391;-64
2022/04/01 08:27:54;;;;;;;7.28;2.20;;;3.80;99.90;;;;;;5092022;28;20105;-63
2022/04/01 08:30:21;;;;;;;6.97;2.10;;;3.20;99.90;;;;;;5090569;28;20066;-64
2022/04/01 08:32:46;;;;;;;4.15;1.67;;;3.50;99.90;;;;;;5092096;28;20528;-65
2022/04/01 08:35:12;;;;;;;3.72;1.60;;;3.70;99.90;;;;;;5084179;28;20076;-63
2022/04/01 08:37:39;;;;;;;3.88;1.58;;;;;;;;;;5091668;28;20048;-65
2022/04/01 08:40:05;;;;;;;5.18;1.40;;;;;;;;;;5092398;28;20052;-63
2022/04/01 08:42:32;;;;;;;2.35;1.40;;;3.60;99.90;;;;;;5092888;28;20391;-65
2022/04/01 08:44:58;;;;;;;6.25;1.90;;;3.60;99.90;;;;;;5092873;28;20177;-64
2022/04/01 08:47:24;;;;;;;;;;;3.60;99.90;;;;;;5092558;28;20051;-63
2022/04/01 08:49:52;;;;;;;4.65;1.65;;;;;;;;;;5092771;28;20383;-63
2022/04/01 08:52:19;;;;;;;3.75;1.77;;;;;;;;;;5092777;28;20054;-62
2022/04/01 08:54:44;;;;;;;5.60;2.05;;;3.70;99.90;;;;;;5091605;28;20184;-63
2022/04/01 08:57:10;;;;;;;5.97;1.80;;;4.10;99.90;;;;;;5092873;28;20077;-64
2022/04/01 08:59:37;;;;;;;8.50;2.40;;;3.90;99.90;;;;;;5092758;28;20185;-63
2022/04/01 09:02:08;;;;;;;5.20;1.98;;;3.80;99.90;;;;;;5092776;28;20048;-64
2022/04/01 09:04:34;;;;;;;7.70;1.95;;;4.00;99.90;;;;;;5092741;28;20044;-65
2022/04/01 09:07:10;;;;;;;4.95;2.00;;;;;;;;;;5092697;28;20050;-63
2022/04/01 09:09:36;;;;;;;4.13;1.80;;;4.20;99.90;;;;;;5092658;28;20052;-64
2022/04/01 09:12:14;;;;;;;4.55;2.28;;;4.10;99.90;;;;;;5092770;28;20101;-63
2022/04/01 09:14:49;;;;;;;5.30;2.13;;;4.50;99.90;;;;;;5092519;28;20051;-64
2022/04/01 09:17:15;;;;;;;5.85;2.00;;;4.30;99.90;;;;;;5092667;28;20040;-63
2022/04/01 09:19:41;;;;;;;5.40;2.35;;;4.30;99.90;;;;;;5092633;28;20052;-63
2022/04/01 09:22:19;;;;;;;3.40;1.98;;;;;;;;;;5092640;28;20048;-63
2022/04/01 09:24:52;;;;;;;7.63;2.28;;;4.20;99.90;;;;;;5092503;28;20140;-63
2022/04/01 09:27:18;;;;;;;6.30;2.22;;;4.20;99.90;;;;;;5092528;28;20094;-63
2022/04/01 09:29:43;;;;;;;9.63;2.20;;;4.50;99.90;;;;;;5092521;28;20047;-63
2022/04/01 09:32:09;;;;;;;8.70;2.40;;;4.40;99.90;;;;;;5091394;28;20062;-63
2022/04/01 09:34:40;;;;;;;4.07;1.73;;;4.50;99.90;;;;;;5092468;28;20052;-63
2022/04/01 09:37:08;;;;;;;4.47;1.70;;;4.60;99.90;;;;;;5092012;28;20571;-64
2022/04/01 09:39:34;;;;;;;2.85;1.73;;;4.30;99.90;;;;;;5092510;28;20040;-63
2022/04/01 09:42:09;;;;;;;;;;;4.50;99.90;;;;;;5091671;28;20090;-63
2022/04/01 09:44:36;;;;;;;3.75;1.60;;;4.20;99.90;;;;;;5092559;28;19927;-63
2022/04/01 09:47:04;;;;;;;4.40;1.73;;;4.50;99.90;;;;;;5092356;28;20051;-63
2022/04/01 09:49:35;;;;;;;5.30;1.73;;;4.30;99.90;;;;;;5092329;28;20052;-63
2022/04/01 09:52:02;;;;;;;4.70;1.80;;;4.20;99.90;;;;;;5092204;28;20062;-65
2022/04/01 09:54:27;;;;;;;;;;;4.30;99.90;;;;;;5092371;28;20495;-64
2022/04/01 09:56:56;;;;;;;5.57;2.08;;;4.40;99.90;;;;;;5091999;28;19920;-63
2022/04/01 09:59:24;;;;;;;3.45;1.73;;;4.00;99.90;;;;;;5095436;28;20063;-65
2022/04/01 10:01:51;;;;;;;4.72;1.80;;;4.20;99.90;;;;;;5096044;28;20048;-62
2022/04/01 10:04:16;;;;;;;;;;;4.20;99.90;;;;;;5096217;28;20613;-64
2022/04/01 10:06:42;;;;;;;3.92;1.60;;;4.70;99.90;;;;;;5094744;28;19959;-63
2022/04/01 10:09:10;;;;;;;4.10;1.42;;;4.60;99.90;;;;;;5095956;28;20051;-64
2022/04/01 10:11:38;;;;;;;3.53;1.60;;;4.30;99.90;;;;;;5095959;28;20105;-62
2022/04/01 10:14:09;;;;;;;8.25;2.20;;;4.60;99.90;;;;;;5094637;28;20044;-64
2022/04/01 10:16:36;;;;;;;5.80;1.90;;;4.70;99.90;;;;;;5095770;28;20118;-64
2022/04/01 10:19:12;;;;;;;;;;;4.60;99.90;;;;;;5094853;28;20516;-64
2022/04/01 10:21:43;;;;;;;4.43;1.83;;;4.50;99.90;;;;;;5095535;28;20390;-64
2022/04/01 10:24:20;;;;;;;9.32;1.85;;;4.70;99.90;;;;;;5095751;28;20045;-64
2022/04/01 10:26:57;;;;;;;4.95;1.92;;;4.80;99.90;;;;;;5095722;28;20105;-66
2022/04/01 10:29:24;;;;;;;5.25;1.73;;;4.60;99.90;;;;;;5095678;28;20044;-65
2022/04/01 10:31:54;;;;;;;3.85;1.67;;;4.80;99.90;;;;;;5095450;28;20109;-64
2022/04/01 10:34:24;;;;;;;6.47;1.98;;;4.90;99.90;;;;;;5095368;28;20086;-64
2022/04/01 10:37:02;;;;;;;6.55;1.90;;;4.50;99.90;;;;;;5095074;28;20071;-64
2022/04/01 10:39:28;;;;;;;2.38;1.77;;;4.50;99.90;;;;;;5095139;28;20506;-63
2022/04/01 10:42:11;;;;;;;4.32;1.70;;;5.00;99.90;;;;;;5095348;28;20067;-64
2022/04/01 10:45:03;;;;;;;5.57;1.50;;;4.50;99.90;;;;;;5095284;28;20044;-64
2022/04/01 10:53:39;;;;;;;3.75;1.80;;;4.80;99.90;;;;;;5095109;28;20048;-64
2022/04/01 10:56:26;;;;;;;3.58;1.67;;;4.90;99.90;;;;;;5095089;28;20100;-63
2022/04/01 10:59:02;;;;;;;8.63;2.20;;;;;;;;;;5094894;28;20079;-66
2022/04/01 11:01:28;;;;;;;5.55;1.75;;;5.20;99.90;;;;;;5094951;28;20083;-65
2022/04/01 11:04:00;;;;;;;6.03;1.88;;;4.70;99.90;;;;;;5094911;28;20082;-64
2022/04/01 11:06:27;;;;;;;7.15;1.77;;;4.60;99.90;;;;;;5094887;28;20048;-64
2022/04/01 11:08:54;;;;;;;4.70;2.00;;;5.00;99.90;;;;;;5094678;28;20110;-63
2022/04/01 11:11:19;;;;;;;2.50;1.67;;;5.20;99.90;;;;;;5093699;28;20459;-63
2022/04/01 11:14:04;;;;;;;4.97;2.08;;;5.40;99.90;;;;;;5094609;28;20040;-65
2022/04/01 11:16:47;;;;;;;4.65;2.08;;;5.30;99.90;;;;;;5094702;28;20162;-63
2022/04/01 11:19:18;;;;;;;7.47;1.77;;;5.10;99.90;;;;;;5094631;28;20044;-64
2022/04/01 11:21:46;;;;;;;7.43;1.92;;;5.50;99.90;;;;;;5094604;28;20075;-63
2022/04/01 11:24:22;;;;;;;7.45;1.83;;;;;;;;;;5094406;28;20036;-62
2022/04/01 11:26:48;;;;;;;5.33;1.73;;;5.40;99.90;;;;;;5094454;28;20052;-63
2022/04/01 11:29:21;;;;;;;5.30;1.80;;;5.40;99.90;;;;;;5094394;28;20092;-62
2022/04/01 11:31:48;;;;;;;4.78;1.75;;;5.50;99.90;;;;;;5094182;28;20404;-64
2022/04/01 11:34:13;;;;;;;;;;;5.10;99.90;;;;;;5094576;28;20044;-62
2022/04/01 11:36:43;;;;;;;3.78;2.03;;;5.00;99.90;;;;;;5089791;28;19943;-63
2022/04/01 11:39:15;;;;;;;5.15;2.22;;;5.30;99.90;;;;;;5092583;28;20506;-63
2022/04/01 11:41:51;;;;;;;8.05;2.42;;;5.30;99.90;;;;;;5094168;28;20044;-63
2022/04/01 11:44:17;;;;;;;5.07;2.55;;;5.40;99.90;;;;;;5094163;28;20044;-62
2022/04/01 11:46:53;;;;;;;5.18;2.20;;;5.60;99.90;;;;;;5094103;28;20048;-63
2022/04/01 11:49:19;;;;;;;7.33;2.77;;;5.50;99.90;;;;;;5094028;28;20127;-63
2022/04/01 11:51:45;;;;;;;8.40;2.67;;;5.20;99.90;;;;;;5094001;28;20357;-62
2022/04/01 11:54:10;;;;;;;6.13;2.58;;;5.50;99.90;;;;;;5092582;28;20044;-62
2022/04/01 11:56:36;;;;;;;5.47;2.30;;;5.30;99.90;;;;;;5093896;28;20044;-61
2022/04/01 11:59:04;;;;;;;6.45;2.28;;;5.20;99.90;;;;;;5093863;28;20808;-63
2022/04/01 12:01:33;;;;;;;5.90;2.20;;;5.40;99.90;;;;;;5093831;28;20052;-62
2022/04/01 12:04:07;;;;;;;4.57;2.30;;;5.30;99.90;;;;;;5093733;28;20048;-63
2022/04/01 12:09:17;;;;;;;4.85;2.33;;;5.30;99.90;;;;;;5093428;28;20784;-61
2022/04/01 12:11:47;;;;;;;5.57;2.28;;;5.50;99.90;;;;;;5092665;28;20056;-62
2022/04/01 12:14:21;;;;;;;8.95;2.42;;;5.30;99.90;;;;;;5093779;28;20055;-64
2022/04/01 12:16:46;;;;;;;7.53;2.08;;;5.60;99.90;;;;;;5093254;28;20048;-61
2022/04/01 12:19:20;;;;;;;9.73;2.60;;;5.60;99.90;;;;;;5093484;28;20058;-62
2022/04/01 12:21:56;;;;;;;5.55;2.20;;;5.70;99.90;;;;;;5093381;28;20048;-61
2022/04/01 12:24:22;;;;;;;7.70;1.97;;;5.70;99.90;;;;;;5093402;28;20040;-61
2022/04/01 12:26:49;;;;;;;7.40;2.10;;;6.10;99.90;;;;;;5093344;28;20134;-63
2022/04/01 12:29:18;;;;;;;5.55;2.30;;;6.50;99.90;;;;;;5093271;28;20446;-62
2022/04/01 12:31:52;;;;;;;5.15;1.85;;;6.30;99.90;;;;;;5093014;28;20510;-62
2022/04/01 12:34:18;;;;;;;4.88;1.95;;;6.10;99.90;;;;;;5093168;28;20048;-62
2022/04/01 12:36:56;;;;;;;7.05;2.20;;;7.20;99.90;;;;;;5092828;28;20430;-63
2022/04/01 12:39:22;;;;;;;21.60;2.65;;;6.30;99.90;;;;;;5092970;28;20055;-62
2022/04/01 12:41:54;;;;;;;6.85;2.00;;;6.70;99.90;;;;;;5093089;28;20135;-63
2022/04/01 12:44:26;;;;;;;3.33;1.77;;;7.10;99.90;;;;;;5075136;28;20059;-62
2022/04/01 12:46:52;;;;;;;5.38;1.77;;;5.70;99.90;;;;;;5093017;28;20048;-63
2022/04/01 12:49:21;;;;;;;;;;;5.40;99.90;;;;;;5093388;28;20629;-62
2022/04/01 12:51:50;;;;;;;7.25;2.05;;;6.10;99.90;;;;;;5091756;28;19920;-62
2022/04/01 12:54:33;;;;;;;4.43;1.80;;;6.50;99.90;;;;;;5092827;28;20376;-62
2022/04/01 12:57:02;;;;;;;2.97;1.95;;;6.30;99.90;;;;;;5092917;28;20052;-63
2022/04/01 12:59:37;;;;;;;4.57;2.10;;;6.20;99.90;;;;;;5092848;28;20123;-62
2022/04/01 13:02:06;;;;;;;7.18;2.00;;;7.20;99.90;;;;;;5092861;28;20051;-62
2022/04/01 13:04:42;;;;;;;3.58;1.80;;;6.50;99.90;;;;;;5092660;28;20032;-62
2022/04/01 13:07:18;;;;;;;6.20;2.07;;;6.50;99.90;;;;;;5092728;28;20048;-62
2022/04/01 13:09:49;;;;;;;3.35;1.90;;;6.70;99.90;;;;;;5092750;28;20301;-63
2022/04/01 13:12:17;;;;;;;6.55;2.33;;;6.70;99.90;;;;;;5092607;28;20048;-62
2022/04/01 13:14:43;;;;;;;4.65;1.80;;;7.90;99.90;;;;;;5092672;28;20048;-62
2022/04/01 13:17:15;;;;;;;2.47;1.73;;;6.10;99.90;;;;;;5092599;28;20392;-61
2022/04/01 13:19:45;;;;;;;4.75;1.98;;;7.20;99.90;;;;;;5092576;28;20044;-62
2022/04/01 13:22:12;;;;;;;3.75;1.95;;;7.30;99.90;;;;;;5092197;28;20602;-62
2022/04/01 13:24:47;;;;;;;5.38;1.90;;;7.40;99.90;;;;;;5092585;28;20067;-62
2022/04/01 13:27:18;;;;;;;5.78;1.85;;;6.40;99.90;;;;;;5092526;28;20055;-62
2022/04/01 13:29:45;;;;;;;6.90;1.80;;;6.50;99.90;;;;;;5091327;28;20059;-64
2022/04/01 13:32:13;;;;;;;2.95;1.75;;;6.60;99.90;;;;;;5092469;28;20062;-62
2022/04/01 13:34:39;;;;;;;4.13;1.50;;;6.80;99.90;;;;;;5096036;28;20510;-63
2022/04/01 13:37:07;;;;;;;5.72;1.70;;;7.70;99.90;;;;;;5095027;28;20052;-61
2022/04/01 13:39:34;;;;;;;8.20;1.83;;;6.60;99.90;;;;;;5096472;28;20087;-62
2022/04/01 13:42:00;;;;;;;5.50;1.70;;;7.80;99.90;;;;;;5096499;28;20130;-62
2022/04/01 13:44:27;;;;;;;;;;;7.50;99.90;;;;;;5096845;28;20044;-61
2022/04/01 13:46:53;;;;;;;5.90;2.17;;;7.00;99.90;;;;;;5096349;28;19966;-62
2022/04/01 13:49:19;;;;;;;5.45;2.50;;;6.80;99.90;;;;;;5096345;28;20135;-61
2022/04/01 13:51:45;;;;;;;8.05;1.80;;;6.80;99.90;;;;;;5096330;28;20080;-62
2022/04/01 13:54:11;;;;;;;8.90;2.20;;;7.60;99.90;;;;;;5096190;28;20075;-62
2022/04/01 13:56:37;;;;;;;4.07;1.75;;;8.20;99.90;;;;;;5096093;28;20086;-62
2022/04/01 13:59:03;;;;;;;3.95;2.05;;;6.80;99.90;;;;;;5096130;28;20136;-61
2022/04/01 14:01:29;;;;;;;5.47;2.00;;;8.10;99.90;;;;;;5096058;28;20059;-63